createdAt,value
2017-06-23T07:50:16.875Z,38.4
2017-06-23T08:52:47.108Z,40.3
2017-06-23T08:53:06.775Z,40.1
2017-06-23T08:53:26.340Z,40.7
2017-06-23T08:53:45.907Z,41.4
2017-06-23T08:54:05.492Z,41.7
2017-06-23T08:54:26.811Z,42.5
2017-06-23T08:54:46.431Z,42.8
2017-06-23T08:55:06.054Z,43
2017-06-23T08:55:25.781Z,42.8
2017-06-23T08:55:45.368Z,43
2017-06-23T08:56:05.061Z,42.7
2017-06-23T08:56:24.856Z,42.6
2017-06-23T08:56:45.209Z,42.8
2017-06-23T08:57:04.997Z,42.6
2017-06-23T08:57:24.745Z,42.2
2017-06-23T08:57:44.340Z,42.3
2017-06-23T08:58:04.203Z,42
2017-06-23T08:58:24.071Z,41.7
2017-06-23T08:58:43.994Z,41.5
2017-06-23T08:59:03.603Z,41.5
2017-06-23T08:59:23.290Z,41.6
2017-06-23T08:59:43.041Z,41.8
2017-06-23T09:00:02.705Z,41.8
2017-06-23T09:00:22.460Z,41.9
2017-06-23T09:00:42.168Z,42
2017-06-23T09:01:01.813Z,42.1
2017-06-23T09:01:21.569Z,42
2017-06-23T09:01:41.143Z,42.2
2017-06-23T09:02:00.707Z,42.3
2017-06-23T09:02:20.436Z,42.5
2017-06-23T09:02:40.313Z,42.9
2017-06-23T09:02:59.821Z,43.1
2017-06-23T09:03:19.567Z,42.8
2017-06-23T09:03:39.209Z,42.4
2017-06-23T09:03:58.811Z,42.2
2017-06-23T09:04:18.380Z,41.8
2017-06-23T09:04:38.177Z,41.4
2017-06-23T09:04:58.503Z,40.8
2017-06-23T09:05:18.228Z,40.8
2017-06-23T09:05:37.919Z,40.8
2017-06-23T09:05:57.749Z,40.5
2017-06-23T09:06:17.451Z,40.4
2017-06-23T09:06:37.125Z,40.7
2017-06-23T09:06:57.577Z,41
2017-06-23T09:07:17.686Z,41.5
2017-06-23T09:07:37.352Z,41.6
2017-06-23T09:07:56.928Z,41.3
2017-06-23T09:08:16.531Z,41
2017-06-23T09:08:36.390Z,40.7
2017-06-23T09:08:56.995Z,40.4
2017-06-23T09:09:16.587Z,40.1
2017-06-23T09:09:36.201Z,40.3
2017-06-23T09:09:55.787Z,41
2017-06-23T09:10:15.343Z,41.2
2017-06-23T09:10:34.885Z,40.9
2017-06-23T09:10:54.462Z,40.9
2017-06-23T09:11:14.129Z,40.9
2017-06-23T09:11:33.719Z,41.2
2017-06-23T09:11:53.351Z,41.1
2017-06-23T09:12:12.963Z,40.8
2017-06-23T09:12:32.931Z,41
2017-06-23T09:12:52.985Z,41.2
2017-06-23T09:13:14.427Z,41.6
2017-06-23T09:13:33.970Z,42.4
2017-06-23T09:13:54.005Z,42.7
2017-06-23T09:14:13.884Z,42.3
2017-06-23T09:14:33.819Z,42.3
2017-06-23T09:14:53.661Z,42.4
2017-06-23T09:15:13.462Z,42.6
2017-06-23T09:15:33.296Z,42.3
2017-06-23T09:15:53.019Z,42
2017-06-23T09:16:12.618Z,42.3
2017-06-23T09:16:32.186Z,42.1
2017-06-23T09:16:51.758Z,42
2017-06-23T09:17:11.291Z,42
2017-06-23T09:17:31.131Z,42.1
2017-06-23T09:17:50.798Z,41.9
2017-06-23T09:18:10.403Z,41.9
2017-06-23T09:18:30.121Z,42.4
2017-06-23T09:18:49.748Z,42.4
2017-06-23T09:19:09.332Z,42.1
2017-06-23T09:19:28.859Z,41.8
2017-06-23T09:19:48.454Z,41.5
2017-06-23T09:20:08.021Z,41.5
2017-06-23T09:20:27.650Z,41.4
2017-06-23T09:20:47.263Z,41.3
2017-06-23T09:21:06.797Z,41.2
2017-06-23T09:21:26.354Z,41
2017-06-23T09:21:45.962Z,41.1
2017-06-23T09:22:05.512Z,41
2017-06-23T09:22:25.051Z,41.4
2017-06-23T09:22:44.605Z,41.1
2017-06-23T09:23:04.165Z,41
2017-06-23T09:23:23.727Z,41.2
2017-06-23T09:23:43.304Z,41.1
2017-06-23T09:24:02.895Z,40.8
2017-06-23T09:24:22.565Z,40.5
2017-06-23T09:24:42.150Z,40.1
2017-06-23T09:25:01.678Z,39.8
2017-06-23T09:25:21.243Z,39.5
2017-06-23T09:25:40.773Z,39.2
2017-06-23T09:26:00.329Z,38.9
2017-06-23T09:26:19.917Z,38.6
2017-06-23T09:26:39.456Z,38.3
2017-06-23T09:26:59.002Z,38.3
2017-06-23T09:27:18.679Z,39.1
2017-06-23T09:27:38.270Z,39.6
2017-06-23T09:27:57.814Z,39.6
2017-06-23T09:28:17.390Z,40
2017-06-23T09:28:36.956Z,40
2017-06-23T09:28:56.532Z,40.2
2017-06-23T09:29:16.105Z,40.2
2017-06-23T09:29:37.402Z,40
2017-06-23T09:29:57.021Z,39.7
2017-06-23T09:30:16.591Z,39.1
2017-06-23T09:30:36.157Z,38.8
2017-06-23T09:30:55.768Z,39.1
2017-06-23T09:31:15.364Z,39.1
2017-06-23T09:31:34.931Z,39.2
2017-06-23T09:31:54.477Z,39.1
2017-06-23T09:32:14.097Z,38.9
2017-06-23T09:32:33.713Z,38.5
2017-06-23T09:32:53.352Z,38.7
2017-06-23T09:33:12.946Z,39.3
2017-06-23T09:33:32.528Z,39.7
2017-06-23T09:33:52.129Z,40.2
2017-06-23T09:34:11.793Z,40.5
2017-06-23T09:34:31.416Z,40.8
2017-06-23T09:34:50.963Z,40.7
2017-06-23T09:35:10.594Z,40.8
2017-06-23T09:35:31.839Z,41.1
2017-06-23T09:35:51.457Z,41.4
2017-06-23T09:36:11.137Z,41.3
2017-06-23T09:36:30.673Z,41.2
2017-06-23T09:36:50.289Z,41
2017-06-23T09:37:09.928Z,40.1
2017-06-23T09:37:29.499Z,39.5
2017-06-23T09:37:49.190Z,39.4
2017-06-23T09:38:08.819Z,39.5
2017-06-23T09:38:28.388Z,39.2
2017-06-23T09:38:48.088Z,39
2017-06-23T09:39:07.731Z,39.1
2017-06-23T09:39:27.358Z,39.3
2017-06-23T09:39:46.938Z,39.3
2017-06-23T09:40:06.544Z,39.1
2017-06-23T09:40:26.101Z,38.8
2017-06-23T09:40:45.645Z,38.5
2017-06-23T09:41:05.245Z,38.1
2017-06-23T09:41:24.831Z,37.9
2017-06-23T09:41:44.423Z,38.6
2017-06-23T09:42:03.977Z,39.2
2017-06-23T09:42:23.586Z,39.3
2017-06-23T09:42:43.349Z,39.8
2017-06-23T09:43:02.925Z,40.4
2017-06-23T09:43:22.560Z,40.5
2017-06-23T09:43:42.131Z,40.8
2017-06-23T09:44:01.760Z,41.3
2017-06-23T09:44:22.385Z,41.4
2017-06-23T09:44:42.032Z,41.4
2017-06-23T09:45:01.657Z,41.3
2017-06-23T09:45:21.240Z,40.9
2017-06-23T09:45:40.857Z,40.5
2017-06-23T09:46:00.416Z,40.5
2017-06-23T09:46:20.113Z,40.3
2017-06-23T09:46:41.377Z,40.4
2017-06-23T09:47:00.970Z,40.5
2017-06-23T09:47:20.535Z,40.4
2017-06-23T09:47:40.114Z,40.1
2017-06-23T09:47:59.672Z,39.8
2017-06-23T09:48:19.243Z,39.5
2017-06-23T09:48:38.804Z,39.3
2017-06-23T09:48:58.516Z,39.7
2017-06-23T09:49:18.369Z,40
2017-06-23T09:49:38.005Z,40
2017-06-23T09:49:57.740Z,39.8
2017-06-23T09:50:17.437Z,39.6
2017-06-23T09:50:37.013Z,39.6
2017-06-23T09:50:56.603Z,39.4
2017-06-23T09:51:16.146Z,39.1
2017-06-23T09:51:35.726Z,39
2017-06-23T09:51:55.289Z,39.2
2017-06-23T09:52:14.822Z,39.2
2017-06-23T09:52:34.364Z,39.3
2017-06-23T09:52:53.906Z,39.4
2017-06-23T09:53:13.556Z,39.4
2017-06-23T09:53:33.129Z,39.4
2017-06-23T09:53:52.811Z,39.7
2017-06-23T09:54:12.443Z,39.8
2017-06-23T09:54:32.052Z,39.7
2017-06-23T09:54:51.588Z,39.6
2017-06-23T09:55:11.670Z,39.5
2017-06-23T09:55:31.290Z,39.2
2017-06-23T09:55:50.873Z,38.8
2017-06-23T09:56:10.446Z,38.7
2017-06-23T09:56:29.986Z,38.7
2017-06-23T09:56:49.584Z,38.8
2017-06-23T09:57:09.176Z,39
2017-06-23T09:57:28.733Z,38.9
2017-06-23T09:57:48.304Z,38.7
2017-06-23T09:58:07.872Z,38.9
2017-06-23T09:58:27.433Z,39
2017-06-23T09:58:47.010Z,39.1
2017-06-23T09:59:06.598Z,39.1
2017-06-23T09:59:26.333Z,38.9
2017-06-23T09:59:46.052Z,38.7
2017-06-23T10:00:06.018Z,38.5
2017-06-23T10:00:25.672Z,38.2
2017-06-23T10:00:48.212Z,38
2017-06-23T10:01:09.534Z,37.9
2017-06-23T10:01:29.157Z,37.8
2017-06-23T10:01:48.858Z,37.7
2017-06-23T10:02:08.627Z,37.6
2017-06-23T10:02:29.192Z,37.7
2017-06-23T10:02:48.803Z,37.5
2017-06-23T10:03:08.372Z,37.3
2017-06-23T10:03:27.956Z,37.3
2017-06-23T10:03:47.522Z,37.2
2017-06-23T10:04:07.082Z,37.1
2017-06-23T10:04:26.660Z,37.1
2017-06-23T10:04:46.246Z,37
2017-06-23T10:05:07.866Z,37
2017-06-23T10:05:27.747Z,37
2017-06-23T10:05:47.795Z,37
2017-06-23T10:06:07.732Z,37
2017-06-23T10:06:27.364Z,36.9
2017-06-23T10:06:46.949Z,36.8
2017-06-23T10:07:08.767Z,36.7
2017-06-23T10:07:29.024Z,36.7
2017-06-23T10:07:48.887Z,36.6
2017-06-23T10:08:08.847Z,36.6
2017-06-23T10:08:28.398Z,36.6
2017-06-23T10:08:47.978Z,36.7
2017-06-23T10:09:07.546Z,37
2017-06-23T10:09:27.165Z,37.1
2017-06-23T10:09:46.805Z,37.4
2017-06-23T10:10:06.394Z,37.7
2017-06-23T10:10:25.975Z,38.3
2017-06-23T10:10:45.684Z,38.2
2017-06-23T10:11:05.846Z,38
2017-06-23T10:11:25.860Z,38.2
2017-06-23T10:11:45.640Z,38.1
2017-06-23T10:12:05.870Z,37.9
2017-06-23T10:12:25.685Z,37.7
2017-06-23T10:12:45.322Z,37.6
2017-06-23T10:13:06.691Z,37.6
2017-06-23T10:13:26.453Z,37.1
2017-06-23T10:13:46.062Z,36.9
2017-06-23T10:14:05.593Z,36.8
2017-06-23T10:14:25.745Z,37.1
2017-06-23T10:14:45.310Z,37.1
2017-06-23T10:15:05.234Z,37.3
2017-06-23T10:15:25.973Z,37.7
2017-06-23T10:15:45.555Z,37.6
2017-06-23T10:16:05.119Z,37.4
2017-06-23T10:16:25.205Z,37.4
2017-06-23T10:16:45.209Z,37.7
2017-06-23T10:17:04.974Z,38.2
2017-06-23T10:17:24.804Z,38.2
2017-06-23T10:17:44.493Z,38.2
2017-06-23T10:18:04.474Z,38.2
2017-06-23T10:18:24.009Z,38
2017-06-23T10:18:43.613Z,37.9
2017-06-23T10:19:03.174Z,37.7
2017-06-23T10:19:22.829Z,37.8
2017-06-23T10:19:42.368Z,37.8
2017-06-23T10:20:01.937Z,37.6
2017-06-23T10:20:21.505Z,37.7
2017-06-23T10:20:41.103Z,37.6
2017-06-23T10:21:00.682Z,37.4
2017-06-23T10:21:20.306Z,37.4
2017-06-23T10:21:39.882Z,37.4
2017-06-23T10:21:59.484Z,37.6
2017-06-23T10:22:19.096Z,38.1
2017-06-23T10:22:38.717Z,38.6
2017-06-23T10:22:58.321Z,38.9
2017-06-23T10:23:17.879Z,39
2017-06-23T10:23:37.489Z,38.9
2017-06-23T10:23:57.062Z,38.7
2017-06-23T10:24:16.604Z,38.6
2017-06-23T10:24:36.215Z,38.6
2017-06-23T10:24:55.813Z,38.4
2017-06-23T10:25:15.369Z,38.6
2017-06-23T10:25:36.566Z,38.5
2017-06-23T10:25:56.117Z,38.4
2017-06-23T10:26:15.676Z,38.6
2017-06-23T10:26:35.248Z,38.9
2017-06-23T10:26:54.835Z,39
2017-06-23T10:27:14.397Z,39.1
2017-06-23T10:27:33.948Z,39
2017-06-23T10:27:53.504Z,38.9
2017-06-23T10:28:13.093Z,38.8
2017-06-23T10:28:32.651Z,38.7
2017-06-23T10:28:52.650Z,38.8
2017-06-23T10:29:13.688Z,38.7
2017-06-23T10:29:33.710Z,38.7
2017-06-23T10:29:53.427Z,39
2017-06-23T10:30:13.029Z,39.6
2017-06-23T10:30:32.729Z,39.8
2017-06-23T10:30:52.368Z,39.6
2017-06-23T10:31:11.945Z,39.3
2017-06-23T10:31:31.806Z,39.1
2017-06-23T10:31:51.497Z,39
2017-06-23T10:32:11.638Z,38.8
2017-06-23T10:32:31.338Z,38.5
2017-06-23T10:32:51.047Z,38.4
2017-06-23T10:33:10.823Z,38.2
2017-06-23T10:33:30.475Z,38.3
2017-06-23T10:33:51.289Z,38.7
2017-06-23T10:34:11.726Z,39.1
2017-06-23T10:34:32.247Z,39.4
2017-06-23T10:34:52.216Z,39.6
2017-06-23T10:35:12.462Z,39.4
2017-06-23T10:35:32.447Z,39.6
2017-06-23T10:35:52.236Z,39.6
2017-06-23T10:36:13.637Z,39.8
2017-06-23T10:36:33.676Z,39.7
2017-06-23T10:36:53.318Z,39.4
2017-06-23T10:37:12.992Z,39.4
2017-06-23T10:37:32.793Z,39.4
2017-06-23T10:37:52.769Z,39.3
2017-06-23T10:38:12.634Z,39.3
2017-06-23T10:38:32.995Z,39.7
2017-06-23T10:38:53.081Z,40.1
2017-06-23T10:39:13.168Z,40.3
2017-06-23T10:39:36.387Z,40.3
2017-06-23T10:39:56.877Z,40
2017-06-23T10:40:17.361Z,39.9
2017-06-23T10:40:37.319Z,39.8
2017-06-23T10:40:57.050Z,39.7
2017-06-23T10:41:16.701Z,39.5
2017-06-23T10:41:36.633Z,39.3
2017-06-23T10:41:56.336Z,39.1
2017-06-23T10:42:16.061Z,38.7
2017-06-23T10:42:35.734Z,38.4
2017-06-23T10:42:55.582Z,38.3
2017-06-23T10:43:15.245Z,38.4
2017-06-23T10:43:34.942Z,38.6
2017-06-23T10:43:54.975Z,38.6
2017-06-23T10:44:14.817Z,38.9
2017-06-23T10:44:35.880Z,39.2
2017-06-23T10:44:55.728Z,39.2
2017-06-23T10:45:15.637Z,39.2
2017-06-23T10:45:35.679Z,39.3
2017-06-23T10:45:55.395Z,39.3
2017-06-23T10:46:15.062Z,39.1
2017-06-23T10:46:34.821Z,39
2017-06-23T10:46:54.523Z,38.9
2017-06-23T10:47:14.126Z,38.9
2017-06-23T10:47:33.752Z,38.7
2017-06-23T10:47:53.548Z,38.6
2017-06-23T10:48:13.213Z,38.3
2017-06-23T10:48:32.923Z,38.1
2017-06-23T10:48:52.539Z,37.9
2017-06-23T10:49:12.279Z,37.8
2017-06-23T10:49:32.060Z,37.6
2017-06-23T10:49:52.034Z,37.6
2017-06-23T10:50:11.775Z,37.6
2017-06-23T10:50:31.656Z,37.4
2017-06-23T10:50:51.644Z,37.2
2017-06-23T10:51:11.390Z,37.1
2017-06-23T10:51:31.384Z,37.1
2017-06-23T10:51:51.043Z,37
2017-06-23T10:52:10.860Z,36.8
2017-06-23T10:52:30.555Z,36.8
2017-06-23T10:52:50.262Z,36.8
2017-06-23T10:53:09.999Z,36.6
2017-06-23T10:53:29.779Z,36.5
2017-06-23T10:53:49.407Z,36.6
2017-06-23T10:54:09.155Z,36.8
2017-06-23T10:54:28.831Z,37.1
2017-06-23T10:54:48.473Z,37.3
2017-06-23T10:55:08.135Z,37.3
2017-06-23T10:55:27.794Z,37.2
2017-06-23T10:55:47.432Z,37.1
2017-06-23T10:56:07.081Z,36.9
2017-06-23T10:56:26.753Z,36.9
2017-06-23T10:56:46.433Z,37
2017-06-23T10:57:06.112Z,37
2017-06-23T10:57:25.860Z,36.9
2017-06-23T10:57:45.632Z,36.6
2017-06-23T10:58:05.292Z,36.5
2017-06-23T10:58:26.574Z,36.7
2017-06-23T10:58:46.278Z,37
2017-06-23T10:59:05.932Z,37.1
2017-06-23T10:59:27.342Z,37.2
2017-06-23T10:59:47.053Z,37.2
2017-06-23T11:00:06.761Z,37.2
2017-06-23T11:00:26.642Z,37.2
2017-06-23T11:00:46.349Z,37.3
2017-06-23T11:01:06.027Z,37.1
2017-06-23T11:01:25.653Z,37
2017-06-23T11:01:45.436Z,36.9
2017-06-23T11:02:05.202Z,37
2017-06-23T11:02:24.799Z,36.9
2017-06-23T11:02:44.617Z,37.3
2017-06-23T11:03:04.887Z,37.5
2017-06-23T11:03:24.933Z,37.5
2017-06-23T11:03:45.018Z,37.3
2017-06-23T11:04:05.140Z,37.2
2017-06-23T11:04:24.851Z,37.2
2017-06-23T11:04:44.674Z,37.1
2017-06-23T11:05:04.341Z,37.3
2017-06-23T11:05:24.237Z,37.3
2017-06-23T11:05:44.434Z,37.3
2017-06-23T11:06:05.057Z,37.4
2017-06-23T11:25:21.339Z,38
2017-06-23T11:25:36.249Z,35.5
2017-06-23T11:26:20.819Z,35
2017-06-23T11:27:04.989Z,35.7
2017-06-23T12:00:08.965Z,33.2
2017-06-23T12:01:46.575Z,32.7
2017-06-23T12:03:39.404Z,32.9
2017-06-23T12:39:16.151Z,34.1
2017-06-23T13:25:07.545Z,33.1
2017-06-23T13:29:34.027Z,32.7
2017-06-23T13:31:07.392Z,32.2
